Pasadena Park, Missouri
Current Conditions -  °F | °C
As of 12:51 AM on Wednesday 28 Jan 2015 (Local Time) from KSTL Reporting Station
Clear Clear  
Wind Chill: 22°   Ceiling: Unl
Heat Index: 29°   Visibility: 7mi
Dew Point: 24°   Wind: 7mph
Humidity: 82%   Direction: 120°ESE
Pressure: 30.25"   Gusts: NA
Location:  38.7055°N, 90.3021°W
Report Text: KSTL 280651Z 12006KT 7SM CLR M02/M04 A3025 RMK AO2 SLP252 T10171044
Loading
Personal Weather Stations






























Interactive Weather Map New forecast layout! Learn more

10-Day Weather Forecast

Advertisements
Track Severe Weather on mobile